KEYE

Eagle Creek Airpark

Indianapolis, Indiana, USA
METAR KEYE 210653Z AUTO 05003KT 10SM SCT055 20/17 A3009 RMK AO2 SLP183 T02000167
Observed Flight Rules
May-21 @ 06:53 UTC (14 minutes ago) Visual Flight Rules
Wind Visibility Clouds
50° at 3 knots 10 miles
  • Scattered at 5,500' AGL
Temperatures Readings
Current 20°C / 68°F
Dewpoint 17°C / 63°F
Humidity 83%
Altimeter 30.09" Hg
Pressure 1018.3 hPa
Elevation 248
METAR KEYE 210653Z AUTO 05003KT 10SM SCT055 20/17 A3009 RMK AO2 SLP183 T02000167
Observed Flight Rules
May-21 @ 06:53 UTC
(14 minutes ago)
VFR
Wind Visibility
50° at 3 knots 10 miles
Clouds
  • Scattered at 5,500' AGL
Temperature Dewpoint
20°C / 68°F 17°C / 63°F
Humidity Altimeter Pressure
83% 30.09" Hg 1018.3 hPa